Belgrade, MN

10:26 AM CST on February 07, 2016 (GMT -0600)
Sibley | | Change Station
CLOSE
Current Station
Personal Weather Station
Location: New London, MN
Elevation: 1260 ft
Nearby Weather Stations
Active Advisory: Winter Weather Advisory

Elev 1260 ft 45.33 °N, 95.01 °W | Updated 13 minutes ago

Partly Cloudy
Partly Cloudy
36.5 °F
Feels Like 31 °F
N
7.3
Wind Variable Wind from South

Today
High -- | Low -- °F
--% Chance of Precip.
Yesterday
High -- | Low -- °F
Precip. -- in
Pressure 29.64 in
Visibility 10.0 miles
Clouds Scattered Clouds 3700 ft
Windchill 31 °F
Dew Point 29 °F
Humidity 73%
Rainfall 0.00 in
Snow Depth Not available.
7:33 AM 5:34 PM
Waning Crescent, 1% visible
METAR KPEX 071614Z AUTO 28021G28KT 10SM SCT037 03/M03 A2964 RMK AO2 T00261031
Pressure 29.64 in
Visibility 10.0 miles
Clouds Scattered Clouds 3700 ft
Windchill 31 °F
Dew Point 29 °F
Humidity 73%
Rainfall 0.00 in
Snow Depth Not available.
7:33 AM 5:34 PM
Waning Crescent, 1% visible
METAR KPEX 071614Z AUTO 28021G28KT 10SM SCT037 03/M03 A2964 RMK AO2 T00261031

10-Day Weather Forecast

Almanac

Astronomy

Feb. 07, 2016 Rise Set
Actual Time
Civil Twilight
Nautical Twilight
Astronomical Twilight
Moon
Length of Visible Light
Length of Day
Tomorrow will be .
, % of the Moon is Illuminated

Today's Extremes

State Highs State Lows

Community

WunderPhotos

Upload Photos

1,891,221 photos uploaded!

WunderBlog® & News

Nearby

Air Quality

  Air Quality AQ Index Pollutant
Not available.

Snow Depth

Station Depth Elevation

Earthquake Activity

City Distance Mag. Time & Date
Minimum magnitude displayed is 2.5.

Coastal Water Temperatures

Place Temperature

Stations

Nearby Weather Stations

Station Location Temp. Windchill Dew Point Humidity Wind Precip. Elev Updated Type
                   

Watches & Warnings

Winter Weather Advisory
Issued: 10:11 AM CST Feb. 7, 2016 – National Weather Service

... Winter Weather Advisory remains in effect from 4 PM this
afternoon to noon CST Monday...

* expect snow to develop around 4 PM this afternoon and then
diminish around noon Monday.

* Snow accumulations of 1 to 2 inches are expected.

* Winds gusting as high as 45 mph will cause areas of blowing
and drifting snow.

* Plan on slippery Road conditions.

Precautionary/preparedness actions...

A Winter Weather Advisory for snow means periods of snow and
blowing snow will cause travel difficulties. Be prepared for snow
covered roads and limited visibilities... and use caution while
driving. The latest Road conditions for the state you are calling
from can be obtained by calling 5 1 1.